Terminal Aerodrome Forecast
Issued by NWS

Home | Current Version | Previous Version | Text Only | Print | Product List | Glossary On
Versions: 1 2 3 4 5 6 7 8 9 10 11 12 13 14 15 16 17 18 19 20 21 22 23 24 25 26
000
FTUS45 KREV 101700
TAFRNO
TAF
KRNO 101720Z 1018/1118 10006KT P6SM SCT120
     FM102300 28011KT P6SM VCTS SCT080CB BKN120
     FM110200 29011G18KT P6SM VCSH SCT080 BKN120
     FM110600 VRB04KT P6SM BKN120=

USA.gov is the U.S. government's official web portal to all federal, state and local government web resources and services.